createdAt,value
2019-05-22T00:00:10.458Z,15.63
2019-05-22T00:02:40.641Z,13.30
2019-05-22T00:05:14.592Z,14.90
2019-05-22T00:07:48.016Z,14.60
2019-05-22T00:10:20.317Z,14.97
2019-05-22T00:12:49.676Z,14.73
2019-05-22T00:15:19.957Z,13.73
2019-05-22T00:17:50.078Z,13.97
2019-05-22T00:20:20.289Z,12.40
2019-05-22T00:22:48.741Z,13.70
2019-05-22T00:25:21.047Z,13.53
2019-05-22T00:27:52.952Z,13.70
2019-05-22T00:30:23.090Z,10.93
2019-05-22T00:32:51.772Z,11.83
2019-05-22T00:35:21.934Z,12.83
2019-05-22T00:37:51.657Z,11.93
2019-05-22T00:40:21.742Z,12.00
2019-05-22T00:43:03.354Z,14.40
2019-05-22T00:45:22.542Z,12.57
2019-05-22T00:47:54.722Z,14.43
2019-05-22T00:50:29.706Z,14.47
2019-05-22T00:53:16.806Z,16.10
2019-05-22T00:55:49.098Z,14.93
2019-05-22T00:58:25.374Z,14.83
2019-05-22T01:00:55.750Z,15.37
2019-05-22T01:03:25.931Z,14.13
2019-05-22T01:05:55.378Z,14.00
2019-05-22T01:08:25.434Z,12.33
2019-05-22T01:10:55.630Z,12.00
2019-05-22T01:13:25.844Z,14.77
2019-05-22T01:15:55.362Z,16.47
2019-05-22T01:18:25.421Z,14.97
2019-05-22T01:20:55.345Z,14.43
2019-05-22T01:23:24.897Z,14.77
2019-05-22T01:25:53.378Z,14.73
2019-05-22T01:28:24.582Z,13.70
2019-05-22T01:30:54.847Z,12.97
2019-05-22T01:33:25.492Z,15.83
2019-05-22T01:36:01.623Z,15.30
2019-05-22T01:38:31.270Z,15.63
2019-05-22T01:41:01.588Z,14.97
2019-05-22T01:43:30.299Z,15.30
2019-05-22T01:46:03.090Z,15.60
2019-05-22T01:48:36.313Z,15.33
2019-05-22T01:51:06.849Z,15.30
2019-05-22T01:53:38.534Z,14.80
2019-05-22T01:56:08.279Z,15.50
2019-05-22T01:58:37.505Z,15.73
2019-05-22T02:01:07.664Z,16.10
2019-05-22T02:03:36.802Z,15.47
2019-05-22T02:06:07.207Z,12.13
2019-05-22T02:08:41.758Z,105.17
2019-05-22T02:11:10.200Z,108.33
2019-05-22T02:13:43.430Z,120.43
2019-05-22T02:16:11.856Z,108.10
2019-05-22T02:18:41.669Z,115.67
2019-05-22T02:21:11.285Z,108.60
2019-05-22T02:23:40.762Z,109.60
2019-05-22T02:26:10.852Z,108.17
2019-05-22T02:28:40.635Z,107.10
2019-05-22T02:31:08.815Z,113.10
2019-05-22T02:33:38.879Z,114.37
2019-05-22T02:36:07.848Z,115.57
2019-05-22T02:38:37.723Z,114.33
2019-05-22T02:41:06.134Z,114.80
2019-05-22T02:43:34.369Z,111.13
2019-05-22T02:46:04.547Z,109.00
2019-05-22T02:48:33.024Z,112.77
2019-05-22T02:51:01.966Z,115.80
2019-05-22T02:53:30.859Z,113.77
2019-05-22T02:55:59.370Z,112.97
2019-05-22T02:58:29.474Z,108.20
2019-05-22T03:01:02.893Z,108.13
2019-05-22T03:03:33.973Z,109.87
2019-05-22T03:06:03.957Z,112.70
2019-05-22T03:08:58.472Z,109.67
2019-05-22T03:11:30.096Z,109.20
2019-05-22T03:14:01.845Z,112.37
2019-05-22T03:16:51.848Z,106.73
2019-05-22T03:19:26.453Z,10.83
2019-05-22T03:21:55.431Z,50.17
2019-05-22T03:24:24.589Z,109.77
2019-05-22T03:26:53.603Z,109.90
2019-05-22T03:29:44.054Z,108.40
2019-05-22T03:32:12.633Z,111.57
2019-05-22T03:34:42.511Z,110.90
2019-05-22T03:37:11.007Z,112.43
2019-05-22T03:39:40.861Z,111.10
2019-05-22T03:42:10.989Z,113.03
2019-05-22T03:44:39.471Z,13.70
2019-05-22T03:47:09.489Z,15.97
2019-05-22T03:49:37.919Z,102.90
2019-05-22T03:52:06.834Z,97.80
2019-05-22T03:54:36.445Z,105.07
2019-05-22T03:57:05.723Z,103.90
2019-05-22T03:59:34.770Z,61.17
2019-05-22T04:02:03.737Z,108.33
2019-05-22T04:04:35.434Z,63.70
2019-05-22T04:07:05.730Z,9.10
2019-05-22T04:09:34.790Z,10.23
2019-05-22T04:12:03.322Z,9.50
2019-05-22T04:14:35.699Z,9.40
2019-05-22T04:17:05.980Z,8.63
2019-05-22T04:19:48.758Z,7.00
2019-05-22T04:22:06.138Z,8.00
2019-05-22T04:24:34.680Z,8.67
2019-05-22T04:27:04.995Z,7.33
2019-05-22T04:29:34.999Z,8.67
2019-05-22T04:32:13.680Z,5.77
2019-05-22T04:34:42.795Z,7.03
2019-05-22T04:37:13.543Z,7.70
2019-05-22T04:39:43.662Z,6.97
2019-05-22T04:42:12.620Z,8.80
2019-05-22T04:44:58.730Z,7.67
2019-05-22T04:47:27.139Z,7.23
2019-05-22T04:50:06.884Z,9.17
2019-05-22T04:52:26.135Z,9.00
2019-05-22T04:54:55.130Z,10.57
2019-05-22T04:57:24.154Z,12.17
2019-05-22T04:59:52.619Z,10.27
2019-05-22T05:02:21.066Z,93.30
2019-05-22T05:04:49.312Z,92.00
2019-05-22T05:07:17.558Z,91.17
2019-05-22T05:09:45.716Z,92.23
2019-05-22T05:12:14.038Z,93.40
2019-05-22T05:14:42.614Z,90.93
2019-05-22T05:17:11.688Z,89.77
2019-05-22T05:19:40.518Z,93.97
2019-05-22T05:22:09.574Z,96.27
2019-05-22T05:24:38.178Z,95.63
2019-05-22T05:27:07.613Z,99.20
2019-05-22T05:29:37.122Z,98.93
2019-05-22T05:32:05.994Z,96.37
2019-05-22T05:34:40.841Z,97.43
2019-05-22T05:37:10.074Z,99.57
2019-05-22T05:39:40.252Z,99.97
2019-05-22T05:42:08.844Z,99.30
2019-05-22T05:44:37.651Z,103.50
2019-05-22T05:47:06.502Z,111.53
2019-05-22T05:49:35.326Z,108.43
2019-05-22T05:52:03.986Z,106.27
2019-05-22T05:54:32.430Z,117.60
2019-05-22T05:57:13.174Z,118.47
2019-05-22T05:59:42.438Z,121.57
2019-05-22T06:02:11.327Z,113.17
2019-05-22T06:04:40.254Z,116.23
2019-05-22T06:07:19.226Z,111.03
2019-05-22T06:09:49.891Z,115.80
2019-05-22T06:12:19.302Z,114.90
2019-05-22T06:14:48.091Z,110.70
2019-05-22T06:17:30.318Z,118.33
2019-05-22T06:20:09.992Z,115.00
2019-05-22T06:22:38.604Z,113.87
2019-05-22T06:25:08.482Z,119.83
2019-05-22T06:27:44.582Z,119.03
2019-05-22T06:30:16.893Z,122.80
2019-05-22T06:33:05.192Z,117.50
2019-05-22T06:35:33.948Z,111.97
2019-05-22T06:38:20.874Z,115.33
2019-05-22T06:40:49.367Z,130.13
2019-05-22T06:43:26.830Z,116.83
2019-05-22T06:45:55.601Z,120.90
2019-05-22T06:48:23.849Z,122.17
2019-05-22T06:50:52.454Z,118.87
2019-05-22T06:53:20.794Z,114.97
2019-05-22T06:55:49.748Z,121.40
2019-05-22T06:58:21.422Z,120.57
2019-05-22T07:00:50.046Z,118.03
2019-05-22T07:03:18.711Z,114.23
2019-05-22T07:05:47.616Z,116.83
2019-05-22T07:08:16.792Z,113.13
2019-05-22T07:10:45.701Z,120.70
2019-05-22T07:13:15.063Z,117.10
2019-05-22T07:15:44.107Z,118.23
2019-05-22T07:18:14.125Z,116.83
2019-05-22T07:20:42.717Z,117.17
2019-05-22T07:23:15.868Z,109.67
2019-05-22T07:25:44.991Z,22.63
2019-05-22T07:28:14.411Z,27.47
2019-05-22T07:30:44.987Z,22.60
2019-05-22T07:33:14.060Z,19.87
2019-05-22T07:36:04.880Z,23.23
2019-05-22T07:38:14.117Z,23.83
2019-05-22T07:40:43.177Z,26.60
2019-05-22T07:43:11.619Z,22.77
2019-05-22T07:45:40.626Z,28.07
2019-05-22T07:48:10.497Z,25.93
2019-05-22T07:50:40.666Z,26.67
2019-05-22T07:53:09.582Z,28.03
2019-05-22T07:55:38.016Z,24.77
2019-05-22T07:58:14.610Z,26.77
2019-05-22T08:00:48.797Z,26.00
2019-05-22T08:03:17.818Z,28.07
2019-05-22T08:05:54.030Z,26.43
2019-05-22T08:08:23.975Z,25.57
2019-05-22T08:10:53.752Z,22.83
2019-05-22T08:13:22.891Z,25.43
2019-05-22T08:15:51.761Z,27.03
2019-05-22T08:18:21.018Z,26.37
2019-05-22T08:20:49.647Z,23.47
2019-05-22T08:23:18.549Z,23.80
2019-05-22T08:25:47.212Z,25.33
2019-05-22T08:28:16.271Z,25.70
2019-05-22T08:30:45.559Z,26.10
2019-05-22T08:33:15.818Z,26.13
2019-05-22T08:35:45.047Z,27.37
2019-05-22T08:38:14.195Z,29.67
2019-05-22T08:40:42.656Z,27.73
2019-05-22T08:43:12.220Z,26.30
2019-05-22T08:45:40.869Z,29.25
2019-05-22T08:48:10.054Z,27.17
2019-05-22T08:50:41.083Z,28.27
2019-05-22T08:53:11.080Z,28.07
2019-05-22T08:55:40.950Z,26.47
2019-05-22T08:58:10.191Z,30.17
2019-05-22T09:00:39.091Z,28.83
2019-05-22T09:03:08.358Z,29.23
2019-05-22T09:05:36.887Z,30.43
2019-05-22T09:08:05.868Z,28.50
2019-05-22T09:10:34.684Z,32.27
2019-05-22T09:13:03.167Z,27.87
2019-05-22T09:15:33.382Z,33.10
2019-05-22T09:18:03.564Z,24.03
2019-05-22T09:20:48.132Z,28.53
2019-05-22T09:23:03.759Z,26.20
2019-05-22T09:25:34.938Z,28.60
2019-05-22T09:28:03.623Z,26.33
2019-05-22T09:30:32.383Z,26.13
2019-05-22T09:33:01.491Z,21.70
2019-05-22T09:35:31.298Z,23.33
2019-05-22T09:38:00.065Z,21.87
2019-05-22T09:40:28.998Z,22.77
2019-05-22T09:42:57.601Z,24.57
2019-05-22T09:45:26.104Z,21.67
2019-05-22T09:47:55.017Z,23.23
2019-05-22T09:50:24.280Z,26.40
2019-05-22T09:52:57.701Z,24.50
2019-05-22T09:55:23.611Z,24.57
2019-05-22T09:57:53.014Z,20.13
2019-05-22T10:00:21.851Z,20.67
2019-05-22T10:02:50.487Z,18.87
2019-05-22T10:05:19.487Z,24.40
2019-05-22T10:08:00.063Z,20.73
2019-05-22T10:10:18.685Z,111.60
2019-05-22T10:12:47.378Z,119.13
2019-05-22T10:15:17.131Z,117.27
2019-05-22T10:17:47.737Z,112.67
2019-05-22T10:20:16.408Z,113.63
2019-05-22T10:22:44.971Z,117.70
2019-05-22T10:25:16.988Z,116.00
2019-05-22T10:27:45.636Z,110.33
2019-05-22T10:30:15.871Z,110.97
2019-05-22T10:32:44.368Z,111.33
2019-05-22T10:35:13.526Z,111.37
2019-05-22T10:37:43.275Z,112.37
2019-05-22T10:40:12.445Z,117.53
2019-05-22T10:42:44.646Z,120.07
2019-05-22T10:45:11.644Z,115.43
2019-05-22T10:47:40.317Z,118.17
2019-05-22T10:50:09.038Z,109.17
2019-05-22T10:52:37.754Z,117.57
2019-05-22T10:55:07.822Z,113.73
2019-05-22T10:57:40.474Z,109.57
2019-05-22T11:00:10.169Z,114.30
2019-05-22T11:02:39.332Z,109.23
2019-05-22T11:05:08.191Z,113.40
2019-05-22T11:07:36.725Z,111.50
2019-05-22T11:10:05.827Z,115.70
2019-05-22T11:12:35.352Z,171.87
2019-05-22T11:15:05.472Z,111.30
2019-05-22T11:17:33.690Z,159.03
2019-05-22T11:20:02.222Z,112.77
2019-05-22T11:22:30.720Z,109.73
2019-05-22T11:24:59.343Z,114.80
2019-05-22T11:27:27.969Z,131.77
2019-05-22T11:29:57.171Z,116.53
2019-05-22T11:32:26.043Z,126.47
2019-05-22T11:34:54.470Z,126.53
2019-05-22T11:37:22.863Z,115.43
2019-05-22T11:39:52.431Z,128.30
2019-05-22T11:42:21.242Z,125.63
2019-05-22T11:44:49.665Z,122.20
2019-05-22T11:47:18.499Z,125.70
2019-05-22T11:49:46.828Z,124.70
2019-05-22T11:52:15.471Z,111.70
2019-05-22T11:54:44.284Z,106.70
2019-05-22T11:57:12.891Z,129.77
2019-05-22T11:59:41.616Z,120.73
2019-05-22T12:02:11.822Z,134.60
2019-05-22T12:04:48.025Z,115.33
2019-05-22T12:07:11.066Z,130.30
2019-05-22T12:09:40.068Z,142.73
2019-05-22T12:12:10.885Z,125.27
2019-05-22T12:14:39.362Z,114.87
2019-05-22T12:17:09.265Z,128.57
2019-05-22T12:19:37.687Z,136.13
2019-05-22T12:22:06.099Z,115.57
2019-05-22T12:24:37.182Z,113.87
2019-05-22T12:27:05.085Z,136.73
2019-05-22T12:29:33.386Z,112.90
2019-05-22T12:32:01.765Z,112.13
2019-05-22T12:34:30.443Z,104.93
2019-05-22T12:36:59.170Z,100.50
2019-05-22T12:39:28.341Z,103.60
2019-05-22T12:41:58.298Z,97.73
2019-05-22T12:44:26.970Z,104.87
2019-05-22T12:46:55.770Z,103.23
2019-05-22T12:49:24.517Z,114.03
2019-05-22T12:51:53.209Z,107.83
2019-05-22T12:54:22.075Z,109.60
2019-05-22T12:56:50.677Z,105.40
2019-05-22T12:59:19.651Z,101.67
2019-05-22T13:01:49.513Z,106.80
2019-05-22T13:04:18.692Z,105.60
2019-05-22T13:06:46.898Z,105.67
2019-05-22T13:09:15.850Z,105.47
2019-05-22T13:11:44.413Z,108.63
2019-05-22T13:14:12.906Z,103.33
2019-05-22T13:16:45.783Z,113.90
2019-05-22T13:19:11.577Z,117.43
2019-05-22T13:21:40.670Z,110.30
2019-05-22T13:24:14.845Z,115.80
2019-05-22T13:26:44.127Z,109.73
2019-05-22T13:29:13.030Z,116.07
2019-05-22T13:31:41.535Z,118.20
2019-05-22T13:34:11.288Z,112.40
2019-05-22T13:36:39.714Z,113.10
2019-05-22T13:39:09.784Z,114.20
2019-05-22T13:41:38.327Z,113.27
2019-05-22T13:44:07.838Z,114.57
2019-05-22T13:46:36.797Z,114.10
2019-05-22T13:49:05.300Z,111.20
2019-05-22T13:51:33.862Z,110.03
2019-05-22T13:54:02.408Z,110.50
2019-05-22T13:56:31.052Z,110.60
2019-05-22T13:58:59.619Z,107.63
2019-05-22T14:01:28.234Z,107.80
2019-05-22T14:03:56.445Z,109.67
2019-05-22T14:06:24.931Z,110.20
2019-05-22T14:08:53.174Z,111.30
2019-05-22T14:11:22.513Z,109.30
2019-05-22T14:13:51.971Z,109.37
2019-05-22T14:16:20.649Z,111.77
2019-05-22T14:18:48.941Z,110.13
2019-05-22T14:21:17.590Z,110.80
2019-05-22T14:23:46.119Z,112.83
2019-05-22T14:26:14.304Z,111.27
2019-05-22T14:28:43.190Z,111.30
2019-05-22T14:31:11.729Z,107.13
2019-05-22T14:33:40.805Z,106.73
2019-05-22T14:36:09.475Z,107.70
2019-05-22T14:38:37.648Z,107.60
2019-05-22T14:41:06.690Z,107.97
2019-05-22T14:43:35.409Z,108.17
2019-05-22T14:46:04.818Z,110.77
2019-05-22T14:48:34.096Z,110.47
2019-05-22T14:51:02.554Z,109.57
2019-05-22T14:53:31.060Z,109.27
2019-05-22T14:56:00.337Z,108.40
2019-05-22T14:58:29.139Z,110.00
2019-05-22T15:00:57.691Z,105.83
2019-05-22T15:03:26.375Z,107.57
2019-05-22T15:05:54.949Z,106.23
2019-05-22T15:08:23.154Z,106.23
2019-05-22T15:10:52.323Z,108.93
2019-05-22T15:13:20.623Z,105.93
2019-05-22T15:15:49.454Z,105.57
2019-05-22T15:18:17.828Z,106.57
2019-05-22T15:20:53.595Z,110.63
2019-05-22T15:23:22.311Z,109.50
2019-05-22T15:25:50.642Z,108.80
2019-05-22T15:28:18.829Z,113.43
2019-05-22T15:30:47.281Z,100.60
2019-05-22T15:33:15.642Z,97.67
2019-05-22T15:35:43.975Z,96.73
2019-05-22T15:38:12.732Z,96.87
2019-05-22T15:40:41.714Z,100.27
2019-05-22T15:43:10.221Z,98.03
2019-05-22T15:45:40.325Z,96.67
2019-05-22T15:48:17.830Z,98.23
2019-05-22T15:50:46.977Z,97.33
2019-05-22T15:53:16.862Z,96.77
2019-05-22T15:55:45.679Z,100.17
2019-05-22T15:58:15.502Z,96.87
2019-05-22T16:00:44.088Z,98.73
2019-05-22T16:03:18.726Z,96.03
2019-05-22T16:05:48.290Z,97.13
2019-05-22T16:08:17.077Z,96.63
2019-05-22T16:10:48.819Z,98.67
2019-05-22T16:13:19.468Z,99.50
2019-05-22T16:15:50.103Z,96.07
2019-05-22T16:18:20.441Z,98.93
2019-05-22T16:20:49.435Z,98.27
2019-05-22T16:23:21.303Z,98.27
2019-05-22T16:25:49.977Z,98.47
2019-05-22T16:28:18.888Z,96.97
2019-05-22T16:30:47.944Z,93.30
2019-05-22T16:33:16.804Z,97.33
2019-05-22T16:35:45.424Z,97.53
2019-05-22T16:38:14.221Z,97.63
2019-05-22T16:40:43.577Z,95.40
2019-05-22T16:43:12.893Z,95.53
2019-05-22T16:45:41.388Z,96.80
2019-05-22T16:48:27.896Z,96.87
2019-05-22T16:50:43.082Z,95.97
2019-05-22T16:53:12.121Z,96.87
2019-05-22T16:55:41.636Z,97.23
2019-05-22T16:58:10.978Z,96.30
2019-05-22T17:00:40.575Z,98.47
2019-05-22T17:03:09.257Z,99.07
2019-05-22T17:05:38.206Z,97.60
2019-05-22T17:08:07.701Z,97.67
2019-05-22T17:10:38.987Z,95.47
2019-05-22T17:13:11.996Z,98.10
2019-05-22T17:15:38.538Z,97.77
2019-05-22T17:18:07.211Z,96.23
2019-05-22T17:20:36.812Z,98.30
2019-05-22T17:23:05.701Z,94.90
2019-05-22T17:25:34.296Z,95.73
2019-05-22T17:28:02.551Z,98.10
2019-05-22T17:30:33.244Z,97.17
2019-05-22T17:33:02.012Z,96.40
2019-05-22T17:35:31.307Z,95.87
2019-05-22T17:38:00.237Z,98.97
2019-05-22T17:40:28.905Z,96.63
2019-05-22T17:42:57.557Z,98.47
2019-05-22T17:45:26.911Z,98.93
2019-05-22T17:47:55.598Z,94.40
2019-05-22T17:50:27.623Z,96.07
2019-05-22T17:52:56.790Z,96.60
2019-05-22T17:55:25.850Z,95.87
2019-05-22T17:57:54.774Z,95.33
2019-05-22T18:00:27.449Z,93.80
2019-05-22T18:02:56.085Z,95.30
2019-05-22T18:05:25.412Z,93.23
2019-05-22T18:07:54.515Z,96.30
2019-05-22T18:10:23.742Z,94.73
2019-05-22T18:12:52.316Z,93.97
2019-05-22T18:15:21.632Z,99.10
2019-05-22T18:17:51.631Z,97.27
2019-05-22T18:20:20.166Z,95.77
2019-05-22T18:22:48.835Z,94.80
2019-05-22T18:25:18.042Z,96.70
2019-05-22T18:27:49.678Z,96.70
2019-05-22T18:30:18.247Z,96.13
2019-05-22T18:32:46.829Z,97.80
2019-05-22T18:35:15.163Z,94.93
2019-05-22T18:37:43.889Z,97.07
2019-05-22T18:40:12.642Z,94.20
2019-05-22T18:42:41.296Z,93.80
2019-05-22T18:45:11.185Z,101.43
2019-05-22T18:47:39.769Z,107.90
2019-05-22T18:50:08.363Z,73.10
2019-05-22T18:52:41.473Z,75.80
2019-05-22T18:55:08.916Z,36.30
2019-05-22T18:57:37.890Z,24.27
2019-05-22T19:00:09.356Z,39.90
2019-05-22T19:02:38.181Z,10.13
2019-05-22T19:05:07.167Z,78.03
2019-05-22T19:07:35.948Z,79.07
2019-05-22T19:10:09.143Z,101.63
2019-05-22T19:12:37.949Z,58.03
2019-05-22T19:15:11.166Z,99.87
2019-05-22T19:17:40.280Z,95.10
2019-05-22T19:20:09.051Z,71.93
2019-05-22T19:22:38.237Z,55.60
2019-05-22T19:25:13.278Z,10.53
2019-05-22T19:27:46.985Z,6.03
2019-05-22T19:30:16.606Z,33.73
2019-05-22T19:32:45.814Z,22.43
2019-05-22T19:35:16.396Z,5.23
2019-05-22T19:37:46.340Z,7.47
2019-05-22T19:40:16.147Z,5.40
2019-05-22T19:42:47.451Z,7.77
2019-05-22T19:45:17.265Z,7.97
2019-05-22T19:47:54.869Z,51.23
2019-05-22T19:50:25.828Z,6.80
2019-05-22T19:52:57.093Z,6.13
2019-05-22T19:55:47.320Z,5.47
2019-05-22T19:58:22.154Z,43.10
2019-05-22T20:00:51.854Z,7.37
2019-05-22T20:03:22.654Z,5.13
2019-05-22T20:05:53.232Z,5.03
2019-05-22T20:08:22.755Z,6.27
2019-05-22T20:10:52.927Z,5.23
2019-05-22T20:13:24.139Z,6.77
2019-05-22T20:15:53.867Z,9.97
2019-05-22T20:18:23.917Z,5.90
2019-05-22T20:20:54.042Z,22.53
2019-05-22T20:23:35.344Z,60.43
2019-05-22T20:25:53.440Z,69.43
2019-05-22T20:28:23.928Z,100.00
2019-05-22T20:30:54.489Z,81.90
2019-05-22T20:33:26.391Z,58.63
2019-05-22T20:35:53.550Z,40.57
2019-05-22T20:38:23.728Z,59.47
2019-05-22T20:40:52.983Z,7.50
2019-05-22T20:43:24.021Z,7.53
2019-05-22T20:45:53.763Z,9.90
2019-05-22T20:48:33.618Z,10.13
2019-05-22T20:51:04.537Z,5.33
2019-05-22T20:53:52.383Z,15.33
2019-05-22T20:56:08.047Z,47.60
2019-05-22T20:58:36.705Z,13.53
2019-05-22T21:01:05.784Z,3.13
2019-05-22T21:03:34.883Z,4.63
2019-05-22T21:06:05.718Z,4.53
2019-05-22T21:08:34.243Z,5.43
2019-05-22T21:11:03.153Z,3.10
2019-05-22T21:13:32.078Z,4.93
2019-05-22T21:16:01.648Z,4.70
2019-05-22T21:18:36.881Z,3.53
2019-05-22T21:21:06.591Z,4.53
2019-05-22T21:23:35.795Z,5.23
2019-05-22T21:26:04.430Z,5.63
2019-05-22T21:28:33.036Z,4.33
2019-05-22T21:31:02.184Z,3.93
2019-05-22T21:33:30.728Z,4.33
2019-05-22T21:36:00.273Z,4.07
2019-05-22T21:38:30.574Z,3.70
2019-05-22T21:40:59.545Z,5.87
2019-05-22T21:43:28.340Z,2.93
2019-05-22T21:45:57.397Z,3.07
2019-05-22T21:48:26.920Z,4.13
2019-05-22T21:50:56.389Z,4.63
2019-05-22T21:53:25.211Z,4.67
2019-05-22T21:56:04.049Z,4.20
2019-05-22T21:58:25.517Z,4.30
2019-05-22T22:00:58.864Z,4.33
2019-05-22T22:03:38.855Z,4.03
2019-05-22T22:06:08.969Z,5.13
2019-05-22T22:08:37.540Z,16.17
2019-05-22T22:11:06.019Z,5.57
2019-05-22T22:13:34.974Z,7.70
2019-05-22T22:16:03.576Z,3.93
2019-05-22T22:18:33.070Z,47.97
2019-05-22T22:21:02.279Z,3.83
2019-05-22T22:23:31.032Z,3.23
2019-05-22T22:26:00.309Z,3.33
2019-05-22T22:28:29.857Z,3.87
2019-05-22T22:31:00.318Z,3.37
2019-05-22T22:33:29.669Z,5.67
2019-05-22T22:35:58.423Z,4.00
2019-05-22T22:38:28.044Z,9.43
2019-05-22T22:40:57.304Z,4.10
2019-05-22T22:43:28.347Z,4.13
2019-05-22T22:46:14.887Z,3.80
2019-05-22T22:48:45.225Z,5.70
2019-05-22T22:51:15.796Z,4.13
2019-05-22T22:53:45.744Z,4.73
2019-05-22T22:56:16.079Z,6.30
2019-05-22T22:58:44.763Z,5.33
2019-05-22T23:01:17.757Z,24.10
2019-05-22T23:03:47.288Z,23.20
2019-05-22T23:06:16.053Z,5.93
2019-05-22T23:08:45.269Z,6.40
2019-05-22T23:11:15.605Z,7.23
2019-05-22T23:13:45.656Z,71.60
2019-05-22T23:16:15.096Z,31.70
2019-05-22T23:18:47.292Z,61.83
2019-05-22T23:21:16.402Z,7.97
2019-05-22T23:23:44.346Z,8.03
2019-05-22T23:26:13.301Z,6.47
2019-05-22T23:28:42.313Z,9.40
2019-05-22T23:31:12.060Z,56.97
2019-05-22T23:33:41.073Z,94.07
2019-05-22T23:36:11.319Z,92.10
2019-05-22T23:38:40.314Z,92.47
2019-05-22T23:41:08.998Z,93.33
2019-05-22T23:43:37.517Z,94.90
2019-05-22T23:46:06.402Z,94.40
2019-05-22T23:48:35.058Z,100.03
2019-05-22T23:51:03.955Z,96.07
2019-05-22T23:53:33.007Z,98.20
2019-05-22T23:56:01.940Z,96.00
2019-05-22T23:58:32.802Z,98.53
